in

UKRAINE International IS BACK At Madeira Airport

UKRAINE International IS BACK At Madeira Airport
UKRAINE International IS BACK At Madeira Airport

The return of Ukraine International Airlines after some years without visiting Madeira! 

The Boeing 737-800 took 6h00 from Kyiv to Funchal, a great effort for the 737, that battled very strong winds on the final approach to Madeira Airport!

Sorry for the shaken footage, the wind was blowing hard!

METAR: LPMA 121330Z 03022KT 9999 FEW013 SCT060 24/17 Q1022

Visit our merchandising shop at https://madeiraspotting.com/shop/ Items are sent from Madeira Island to you! 

#aviation #airport #ukraine

Date: 12.07.2021 

Hope you like the video!

Also a big thanks to my members:

@Aqzii
@Ranjit Singh
@石毛孝志
@RICHARD Thivierge
@Loris Mazzetto
@Casandra

00:00 Intro
00:05 Ukraine International Airlines flight PS7151 from Kyiv – Boeing 737-800 – UR-PSM

Camera: Panasonic X1500

What do you think?

Deixe uma resposta

O seu endereço de email não será publicado. Campos obrigatórios marcados com *

GIPHY App Key not set. Please check settings

    6 Smooth Morning Landings At Madeira Airport

    6 Smooth Morning Landings At Madeira Airport

    Condor A321 Landing, Backtracking and Taxi to Stand At Madeira Airport

    Condor A321 Landing, Backtracking and Taxi to Stand At Madeira Airport